Time;durP1;ratioP1;P1;durP2;ratioP2;P2;SDS_P1;SDS_P2;PMS_P1;PMS_P2;Temp;Humidity;BMP_temperature;BMP_pressure;BME280_temperature;BME280_humidity;BME280_pressure;Samples;Min_cycle;Max_cycle;Signal;HPM_P1;HPM_P2
2022/11/19 00:01:58;;;;;;;5.57;2.97;;;5.60;99.90;;;;;;5066679;22;20504;-79
2022/11/19 00:04:25;;;;;;;4.03;2.90;;;5.60;99.90;;;;;;5046854;28;20481;-78
2022/11/19 00:06:58;;;;;;;3.77;2.73;;;5.70;99.90;;;;;;5045126;28;20868;-78
2022/11/19 00:09:26;;;;;;;5.83;3.37;;;5.80;99.90;;;;;;5046022;28;20534;-79
2022/11/19 00:14:39;;;;;;;5.70;4.10;;;5.60;99.90;;;;;;5047866;28;20913;-79
2022/11/19 00:17:06;;;;;;;5.20;4.13;;;5.70;99.90;;;;;;5036075;28;20463;-79
2022/11/19 00:19:32;;;;;;;6.37;4.20;;;5.60;99.90;;;;;;5028944;28;20475;-79
2022/11/19 00:21:59;;;;;;;4.33;3.30;;;5.50;99.90;;;;;;5042175;28;20499;-79
2022/11/19 00:24:27;;;;;;;5.00;3.33;;;5.50;99.90;;;;;;5051577;28;20439;-79
2022/11/19 00:26:55;;;;;;;7.30;4.50;;;5.40;99.90;;;;;;5045291;28;20465;-79
2022/11/19 00:29:21;;;;;;;5.87;3.90;;;5.40;99.90;;;;;;5049228;28;20457;-79
2022/11/19 00:31:50;;;;;;;7.13;5.07;;;5.50;99.90;;;;;;5028377;28;20467;-79
2022/11/19 00:34:17;;;;;;;6.00;3.37;;;5.50;99.90;;;;;;5034453;28;20889;-79
2022/11/19 00:36:43;;;;;;;6.87;4.17;;;5.50;99.90;;;;;;5038963;28;20523;-79
2022/11/19 00:39:10;;;;;;;5.70;4.00;;;5.50;99.90;;;;;;5031324;28;20455;-79
2022/11/19 00:41:37;;;;;;;6.40;4.70;;;5.40;99.90;;;;;;5048213;28;20477;-78
2022/11/19 00:44:04;;;;;;;7.30;4.80;;;5.40;99.90;;;;;;5048618;28;20541;-79
2022/11/19 00:46:31;;;;;;;6.07;4.20;;;5.20;99.90;;;;;;5029767;28;20437;-79
2022/11/19 00:49:00;;;;;;;7.63;4.53;;;5.20;99.90;;;;;;5028432;28;20532;-79
2022/11/19 00:51:29;;;;;;;7.83;4.83;;;5.40;99.90;;;;;;5027728;28;20450;-79
2022/11/19 00:53:56;;;;;;;6.80;5.00;;;5.40;99.90;;;;;;5029264;28;20453;-80
2022/11/19 00:56:25;;;;;;;7.23;4.73;;;5.30;99.90;;;;;;5047791;28;20479;-79
2022/11/19 00:58:52;;;;;;;10.00;5.73;;;5.40;99.90;;;;;;5047802;28;20478;-79
2022/11/19 01:01:21;;;;;;;5.87;4.60;;;5.30;99.90;;;;;;5048827;28;20479;-79
2022/11/19 01:03:48;;;;;;;6.73;5.00;;;5.30;99.90;;;;;;5048602;28;20453;-79
2022/11/19 01:06:18;;;;;;;8.30;6.30;;;5.20;99.90;;;;;;5032481;28;20474;-79
2022/11/19 01:08:45;;;;;;;9.20;4.80;;;5.30;99.90;;;;;;5027183;28;20975;-79
2022/11/19 01:11:14;;;;;;;7.83;5.70;;;5.30;99.90;;;;;;5037732;28;20515;-78
2022/11/19 01:13:41;;;;;;;7.43;5.30;;;5.30;99.90;;;;;;5048282;28;20464;-78
2022/11/19 01:16:11;;;;;;;8.53;5.17;;;5.30;99.90;;;;;;5033757;28;20497;-78
2022/11/19 01:18:39;;;;;;;11.03;6.37;;;5.20;99.90;;;;;;5027306;28;20482;-78
2022/11/19 01:21:07;;;;;;;9.30;6.07;;;5.20;99.90;;;;;;5027265;28;20538;-79
2022/11/19 01:23:36;;;;;;;10.23;7.20;;;5.20;99.90;;;;;;5028154;28;20496;-78
2022/11/19 01:26:03;;;;;;;10.93;7.60;;;5.10;99.90;;;;;;5032014;28;20480;-78
2022/11/19 01:28:30;;;;;;;12.87;7.50;;;5.10;99.90;;;;;;5046034;28;20532;-79
2022/11/19 01:30:58;;;;;;;9.27;6.80;;;5.20;99.90;;;;;;5034236;28;20501;-78
2022/11/19 01:33:25;;;;;;;10.93;7.47;;;5.20;99.90;;;;;;5024532;28;20470;-78
2022/11/19 01:35:56;;;;;;;9.80;6.67;;;5.10;99.90;;;;;;5039952;28;20469;-79
2022/11/19 01:38:23;;;;;;;12.53;8.87;;;5.10;99.90;;;;;;5043249;28;20449;-78
2022/11/19 01:40:52;;;;;;;10.80;9.00;;;5.10;99.90;;;;;;5043340;28;20478;-78
2022/11/19 01:43:19;;;;;;;10.50;8.47;;;5.00;99.90;;;;;;5044429;28;20534;-80
2022/11/19 01:45:48;;;;;;;11.97;9.90;;;4.90;99.90;;;;;;5045664;28;20980;-79
2022/11/19 01:48:18;;;;;;;13.70;9.00;;;4.80;99.90;;;;;;5044890;28;20512;-78
2022/11/19 01:50:49;;;;;;;12.07;9.40;;;4.90;99.90;;;;;;5008053;28;20919;-79
2022/11/19 01:53:18;;;;;;;14.63;10.20;;;4.80;99.90;;;;;;5020570;28;20476;-79
2022/11/19 01:55:46;;;;;;;13.23;9.20;;;4.90;99.90;;;;;;5028064;28;20565;-80
2022/11/19 01:58:17;;;;;;;14.53;9.70;;;4.80;99.90;;;;;;5028475;28;20488;-79
2022/11/19 02:00:44;;;;;;;14.10;10.10;;;4.90;99.90;;;;;;5046556;28;20479;-79
2022/11/19 02:03:12;;;;;;;12.60;10.83;;;5.00;99.90;;;;;;5048942;28;20496;-80
2022/11/19 02:05:41;;;;;;;12.60;9.40;;;5.00;99.90;;;;;;5048349;28;20441;-78
2022/11/19 02:08:10;;;;;;;13.60;10.23;;;5.00;99.90;;;;;;5047262;28;20482;-80
2022/11/19 02:10:48;;;;;;;13.77;10.30;;;5.00;99.90;;;;;;5026282;28;20492;-79
2022/11/19 02:13:26;;;;;;;15.10;10.93;;;5.00;99.90;;;;;;5007819;28;20466;-80
2022/11/19 02:16:01;;;;;;;15.60;10.77;;;5.00;99.90;;;;;;5019660;28;20488;-79
2022/11/19 02:18:42;;;;;;;17.90;12.37;;;4.90;99.90;;;;;;5026935;28;20889;-78
2022/11/19 02:21:19;;;;;;;16.30;11.80;;;4.80;99.90;;;;;;5029276;28;20463;-78
2022/11/19 02:24:30;;;;;;;16.10;11.40;;;4.70;99.90;;;;;;5027027;28;20427;-79
2022/11/19 02:27:35;;;;;;;15.33;10.87;;;4.70;99.90;;;;;;5029909;28;20446;-79
2022/11/19 02:30:09;;;;;;;13.53;10.50;;;4.70;99.90;;;;;;5031407;28;20440;-78
2022/11/19 02:32:47;;;;;;;16.97;10.47;;;4.60;99.90;;;;;;5028963;28;20451;-79
2022/11/19 02:35:22;;;;;;;18.00;12.47;;;4.60;99.90;;;;;;5027948;28;20495;-79
2022/11/19 02:37:58;;;;;;;17.10;11.87;;;4.60;99.90;;;;;;5028228;28;20451;-78
2022/11/19 02:40:29;;;;;;;16.33;11.13;;;4.60;99.90;;;;;;5028079;28;20494;-79
2022/11/19 02:43:05;;;;;;;18.17;11.93;;;4.60;99.90;;;;;;5027013;28;20563;-78
2022/11/19 02:45:37;;;;;;;15.90;12.07;;;4.60;99.90;;;;;;5024939;28;20856;-78
2022/11/19 02:48:09;;;;;;;16.53;11.80;;;4.60;99.90;;;;;;5026098;28;20475;-78
2022/11/19 02:50:42;;;;;;;16.90;11.07;;;4.60;99.90;;;;;;5024122;28;20510;-79
2022/11/19 02:53:09;;;;;;;18.83;13.20;;;4.60;99.90;;;;;;5026522;28;20574;-78
2022/11/19 02:55:37;;;;;;;16.43;11.90;;;4.60;99.90;;;;;;5025258;28;20553;-79
2022/11/19 02:58:09;;;;;;;15.70;10.63;;;4.50;99.90;;;;;;5034419;28;20791;-78
2022/11/19 03:06:17;;;;;;;17.90;12.00;;;4.50;99.90;;;;;;5027009;28;20848;-79
2022/11/19 03:08:45;;;;;;;23.10;13.33;;;4.40;99.90;;;;;;5027185;28;20456;-79
2022/11/19 03:11:19;;;;;;;17.63;12.60;;;4.50;99.90;;;;;;5027307;28;20537;-79
2022/11/19 03:16:42;;;;;;;18.30;12.90;;;4.60;99.90;;;;;;5044743;28;20506;-79
2022/11/19 03:19:20;;;;;;;18.60;13.33;;;4.50;99.90;;;;;;5030222;28;20490;-78
2022/11/19 03:21:54;;;;;;;21.80;14.27;;;4.40;99.90;;;;;;5026037;28;20542;-79
2022/11/19 03:24:27;;;;;;;20.47;14.40;;;4.50;99.90;;;;;;5027053;28;21043;-78
2022/11/19 03:26:58;;;;;;;24.73;14.20;;;4.40;99.90;;;;;;5029157;28;21045;-78
2022/11/19 03:29:27;;;;;;;17.90;13.17;;;4.30;99.90;;;;;;5047162;28;20488;-79
2022/11/19 03:32:02;;;;;;;18.80;13.60;;;4.30;99.90;;;;;;5053136;28;20478;-80
2022/11/19 03:34:31;;;;;;;25.03;15.80;;;4.30;99.90;;;;;;5040866;28;20480;-79
2022/11/19 03:37:01;;;;;;;18.20;13.00;;;4.40;99.90;;;;;;5058344;28;20479;-79
2022/11/19 03:39:28;;;;;;;19.50;14.73;;;4.40;99.90;;;;;;5058440;28;20476;-79
2022/11/19 03:41:56;;;;;;;19.20;13.40;;;4.30;99.90;;;;;;5058724;28;20491;-80
2022/11/19 03:44:26;;;;;;;20.40;13.80;;;4.30;99.90;;;;;;5058610;28;20458;-79
2022/11/19 03:46:58;;;;;;;20.70;13.50;;;4.20;99.90;;;;;;5044937;28;20537;-79
2022/11/19 03:49:30;;;;;;;21.50;16.43;;;4.30;99.90;;;;;;5057801;28;20501;-79
2022/11/19 03:52:01;;;;;;;21.07;14.90;;;4.10;99.90;;;;;;5044450;28;20476;-79
2022/11/19 03:54:28;;;;;;;22.17;14.23;;;4.20;99.90;;;;;;5038663;28;20506;-78
2022/11/19 03:56:58;;;;;;;21.10;14.40;;;4.20;99.90;;;;;;5052597;28;20476;-79
2022/11/19 03:59:28;;;;;;;21.70;14.90;;;4.20;99.90;;;;;;5035118;28;20446;-79
2022/11/19 04:02:01;;;;;;;22.60;15.10;;;4.20;99.90;;;;;;5038359;28;20509;-80
2022/11/19 04:04:37;;;;;;;23.40;16.30;;;4.10;99.90;;;;;;5033520;28;20458;-80
2022/11/19 04:07:09;;;;;;;20.70;14.80;;;4.10;99.90;;;;;;5032467;28;20425;-80
2022/11/19 04:09:37;;;;;;;22.50;16.37;;;4.10;99.90;;;;;;5053129;28;20485;-80
2022/11/19 04:12:04;;;;;;;21.70;15.63;;;4.00;99.90;;;;;;5033889;28;20475;-79
2022/11/19 04:14:31;;;;;;;18.70;14.40;;;4.10;99.90;;;;;;5033348;28;20531;-79
2022/11/19 04:17:00;;;;;;;21.67;15.17;;;4.20;99.90;;;;;;5034330;28;20553;-79
2022/11/19 04:19:29;;;;;;;20.33;15.50;;;4.20;99.90;;;;;;5034562;28;20478;-79
2022/11/19 04:21:56;;;;;;;18.53;13.10;;;4.20;99.90;;;;;;5034155;28;20489;-79
2022/11/19 04:24:22;;;;;;;20.33;14.50;;;4.20;99.90;;;;;;5035053;28;20472;-79
2022/11/19 04:26:49;;;;;;;21.83;15.20;;;4.20;99.90;;;;;;5035952;28;20481;-79
2022/11/19 04:29:16;;;;;;;21.03;15.17;;;4.30;99.90;;;;;;5040280;28;20972;-79
2022/11/19 04:31:43;;;;;;;22.67;14.47;;;4.20;99.90;;;;;;5052377;28;20484;-79
2022/11/19 04:34:11;;;;;;;23.30;15.70;;;4.10;99.90;;;;;;5040293;28;20459;-80
2022/11/19 04:36:41;;;;;;;19.60;14.80;;;3.90;99.90;;;;;;5032388;28;20560;-79
2022/11/19 04:39:09;;;;;;;21.50;15.50;;;4.00;99.90;;;;;;5047242;28;20456;-79
2022/11/19 04:41:36;;;;;;;20.07;14.23;;;4.00;99.90;;;;;;5044883;28;20514;-79
2022/11/19 04:44:03;;;;;;;25.93;15.60;;;4.00;99.90;;;;;;5033778;28;20469;-79
2022/11/19 04:46:30;;;;;;;21.50;14.73;;;4.00;99.90;;;;;;5046626;28;20528;-79
2022/11/19 04:48:57;;;;;;;20.00;13.93;;;3.90;99.90;;;;;;5038822;28;20876;-79
2022/11/19 04:51:26;;;;;;;20.50;14.20;;;3.90;99.90;;;;;;5045463;28;20452;-79
2022/11/19 04:53:52;;;;;;;20.53;13.87;;;3.90;99.90;;;;;;5051837;28;20475;-80
2022/11/19 04:56:19;;;;;;;19.87;14.50;;;4.00;99.90;;;;;;5031578;28;20497;-79
2022/11/19 04:58:46;;;;;;;24.70;16.27;;;3.90;99.90;;;;;;5032531;28;20501;-80
2022/11/19 05:01:13;;;;;;;23.63;15.97;;;3.90;99.90;;;;;;5035943;28;20493;-80
2022/11/19 05:03:40;;;;;;;20.90;14.27;;;3.80;99.90;;;;;;5032787;28;20529;-80
2022/11/19 05:06:07;;;;;;;25.03;16.10;;;3.90;99.90;;;;;;5032401;28;20482;-79
2022/11/19 05:08:36;;;;;;;24.50;15.57;;;4.00;99.90;;;;;;5032156;28;20476;-79
2022/11/19 05:11:02;;;;;;;22.40;14.73;;;4.00;99.90;;;;;;5032264;28;20517;-80
2022/11/19 05:13:29;;;;;;;23.47;15.90;;;4.00;99.90;;;;;;5031112;28;20525;-80
2022/11/19 05:15:56;;;;;;;21.00;14.70;;;4.00;99.90;;;;;;5045310;28;20454;-79
2022/11/19 05:18:24;;;;;;;21.57;16.10;;;4.00;99.90;;;;;;5050406;28;20425;-79
2022/11/19 05:20:51;;;;;;;22.90;15.60;;;3.90;99.90;;;;;;5050913;28;20513;-79
2022/11/19 05:23:18;;;;;;;24.10;16.13;;;3.80;99.90;;;;;;5045929;28;20525;-79
2022/11/19 05:25:46;;;;;;;25.60;16.30;;;3.90;99.90;;;;;;5030782;28;20503;-79
2022/11/19 05:28:13;;;;;;;22.80;15.60;;;3.90;99.90;;;;;;5029706;28;20514;-79
2022/11/19 05:30:40;;;;;;;25.00;15.70;;;3.80;99.90;;;;;;5029424;28;20486;-79
2022/11/19 05:33:07;;;;;;;26.10;16.60;;;3.80;99.90;;;;;;5035351;28;20560;-80
2022/11/19 05:35:34;;;;;;;23.27;16.53;;;3.80;99.90;;;;;;5051233;28;20929;-79
2022/11/19 05:38:03;;;;;;;25.97;16.90;;;3.80;99.90;;;;;;5045537;28;20512;-79
2022/11/19 05:40:30;;;;;;;25.70;16.20;;;3.70;99.90;;;;;;5031499;28;20457;-79
2022/11/19 05:43:04;;;;;;;26.23;17.97;;;3.70;99.90;;;;;;5034662;28;20563;-79
2022/11/19 05:45:31;;;;;;;24.87;17.00;;;3.70;99.90;;;;;;5049765;28;20447;-79
2022/11/19 05:47:58;;;;;;;27.33;16.63;;;3.50;99.90;;;;;;5043748;28;20480;-78
2022/11/19 05:50:25;;;;;;;31.53;19.40;;;3.50;99.90;;;;;;5030359;28;20497;-78
2022/11/19 05:52:52;;;;;;;27.63;18.80;;;3.50;99.90;;;;;;5030925;28;20548;-79
2022/11/19 05:55:19;;;;;;;27.53;17.70;;;3.50;99.90;;;;;;5030385;28;20545;-79
2022/11/19 05:57:48;;;;;;;25.83;16.10;;;3.40;99.90;;;;;;5033863;28;20834;-78
2022/11/19 06:00:18;;;;;;;26.97;17.27;;;3.50;99.90;;;;;;5029005;28;20514;-79
2022/11/19 06:02:47;;;;;;;29.83;17.67;;;3.40;99.90;;;;;;5063332;22;20574;-80
2022/11/19 06:05:14;;;;;;;25.03;15.73;;;3.40;99.90;;;;;;5068274;28;20406;-80
2022/11/19 06:07:41;;;;;;;25.67;16.33;;;3.50;99.90;;;;;;5067179;28;20468;-79
2022/11/19 06:10:09;;;;;;;25.17;16.57;;;3.50;99.90;;;;;;5068462;28;20474;-80
2022/11/19 06:12:36;;;;;;;24.30;15.67;;;3.50;99.90;;;;;;5062774;28;20486;-79
2022/11/19 06:15:05;;;;;;;28.50;17.10;;;3.50;99.90;;;;;;5056226;28;20468;-81
2022/11/19 06:17:33;;;;;;;27.87;16.10;;;3.50;99.90;;;;;;5039920;28;20456;-80
2022/11/19 06:20:00;;;;;;;27.70;16.73;;;3.50;99.90;;;;;;5053368;28;20510;-80
2022/11/19 06:22:27;;;;;;;24.50;16.60;;;3.50;99.90;;;;;;5047753;28;20528;-79
2022/11/19 06:24:54;;;;;;;23.80;14.57;;;3.40;99.90;;;;;;5048241;28;20946;-80
2022/11/19 06:27:21;;;;;;;24.87;15.67;;;3.40;99.90;;;;;;5047058;28;20511;-79
2022/11/19 06:29:48;;;;;;;25.70;15.87;;;3.40;99.90;;;;;;5053527;28;20426;-80
2022/11/19 06:32:15;;;;;;;26.93;17.10;;;3.30;99.90;;;;;;5048012;28;20508;-80
2022/11/19 06:34:43;;;;;;;29.73;15.23;;;3.40;99.90;;;;;;5048163;28;20908;-78
2022/11/19 06:37:10;;;;;;;24.03;14.83;;;3.40;99.90;;;;;;5047360;28;20829;-80
2022/11/19 06:39:37;;;;;;;25.27;15.23;;;3.50;99.90;;;;;;5047132;28;20481;-80
2022/11/19 06:44:45;;;;;;;23.70;15.60;;;3.50;99.90;;;;;;5046557;28;20768;-79
2022/11/19 06:47:11;;;;;;;31.83;16.87;;;3.50;99.90;;;;;;5047192;28;20437;-80
2022/11/19 06:49:38;;;;;;;30.63;16.93;;;3.40;99.90;;;;;;5047932;28;20516;-78
2022/11/19 06:52:06;;;;;;;23.20;15.90;;;3.50;99.90;;;;;;5041058;28;20476;-78
2022/11/19 06:54:33;;;;;;;24.93;15.37;;;3.50;99.90;;;;;;5041180;28;20447;-78
2022/11/19 06:57:00;;;;;;;21.93;14.50;;;3.50;99.90;;;;;;5042272;28;20482;-78
2022/11/19 06:59:28;;;;;;;22.33;14.50;;;3.60;99.90;;;;;;5055995;28;20422;-78
2022/11/19 07:01:55;;;;;;;24.90;15.87;;;3.50;99.90;;;;;;5066044;28;20481;-79
2022/11/19 07:04:22;;;;;;;25.20;14.53;;;3.60;99.90;;;;;;5065254;28;20414;-78
2022/11/19 07:06:49;;;;;;;20.60;14.73;;;3.50;99.90;;;;;;5054229;28;20440;-79
2022/11/19 07:09:17;;;;;;;24.13;16.73;;;3.40;99.90;;;;;;5056182;28;20519;-78
2022/11/19 07:11:44;;;;;;;22.03;13.17;;;3.40;99.90;;;;;;5062988;28;20422;-79
2022/11/19 07:14:10;;;;;;;23.80;14.60;;;3.40;99.90;;;;;;5048961;28;20482;-78
2022/11/19 07:16:37;;;;;;;22.87;15.20;;;3.40;99.90;;;;;;5045537;28;20486;-78
2022/11/19 07:19:07;;;;;;;23.53;13.90;;;3.30;99.90;;;;;;5044994;28;20435;-79
2022/11/19 07:21:34;;;;;;;21.33;14.53;;;3.30;99.90;;;;;;5063621;28;20506;-78
2022/11/19 07:24:02;;;;;;;23.13;15.47;;;3.30;99.90;;;;;;5064066;28;21063;-78
2022/11/19 07:26:31;;;;;;;21.13;14.73;;;3.30;99.90;;;;;;5056254;28;20425;-79
2022/11/19 07:29:00;;;;;;;24.67;13.57;;;3.20;99.90;;;;;;5052611;28;20450;-76
2022/11/19 07:31:27;;;;;;;21.87;14.40;;;3.30;99.90;;;;;;5050019;28;20539;-79
2022/11/19 07:33:53;;;;;;;25.53;14.53;;;3.20;99.90;;;;;;5051927;28;20502;-79
2022/11/19 07:36:21;;;;;;;20.67;14.27;;;3.30;99.90;;;;;;5043457;28;20421;-78
2022/11/19 07:38:49;;;;;;;19.73;12.90;;;3.10;99.90;;;;;;5052416;28;20510;-78
2022/11/19 07:44:02;;;;;;;21.80;13.47;;;3.10;99.90;;;;;;5054614;28;20438;-78
2022/11/19 07:46:28;;;;;;;21.43;12.03;;;3.10;99.90;;;;;;5063629;28;20486;-79
2022/11/19 07:48:57;;;;;;;19.43;13.27;;;3.20;99.90;;;;;;5056879;28;20475;-78
2022/11/19 07:51:24;;;;;;;21.13;13.20;;;3.10;99.90;;;;;;5054591;28;20442;-78
2022/11/19 07:53:52;;;;;;;21.50;12.47;;;3.20;99.90;;;;;;5059130;28;20499;-77
2022/11/19 07:56:19;;;;;;;21.50;14.23;;;3.30;99.90;;;;;;5047006;28;20508;-78
2022/11/19 07:58:46;;;;;;;21.23;14.33;;;3.30;99.90;;;;;;5047705;28;20496;-78
2022/11/19 08:01:17;;;;;;;24.07;14.50;;;3.40;99.90;;;;;;5051868;28;20445;-78
2022/11/19 08:03:45;;;;;;;21.83;13.10;;;3.20;99.90;;;;;;5054882;28;20459;-78
2022/11/19 08:06:12;;;;;;;20.00;13.23;;;3.20;99.90;;;;;;5048073;28;20484;-78
2022/11/19 08:08:39;;;;;;;19.20;12.20;;;3.20;99.90;;;;;;5047200;28;20423;-79
2022/11/19 08:11:08;;;;;;;22.40;14.10;;;3.30;99.90;;;;;;5046378;28;20509;-78
2022/11/19 08:13:35;;;;;;;20.00;13.03;;;3.10;99.90;;;;;;5063219;28;20442;-78
2022/11/19 08:16:05;;;;;;;19.40;12.60;;;3.20;99.90;;;;;;5059955;28;20439;-78
2022/11/19 08:18:32;;;;;;;19.60;12.57;;;3.30;99.90;;;;;;5042573;28;20454;-78
2022/11/19 08:21:04;;;;;;;19.83;13.30;;;3.50;99.90;;;;;;5056033;28;20444;-78
2022/11/19 08:23:31;;;;;;;16.90;12.30;;;3.30;99.90;;;;;;5042546;28;20457;-78
2022/11/19 08:25:58;;;;;;;17.77;12.87;;;3.40;99.90;;;;;;5062661;28;20521;-78
2022/11/19 08:28:25;;;;;;;16.70;12.73;;;3.40;99.90;;;;;;5062738;28;20458;-78
2022/11/19 08:30:52;;;;;;;19.00;11.57;;;3.30;99.90;;;;;;5048986;28;20506;-78
2022/11/19 08:33:19;;;;;;;16.53;11.57;;;3.40;99.90;;;;;;5061400;28;20523;-78
2022/11/19 08:35:47;;;;;;;18.27;11.00;;;3.40;99.90;;;;;;5044851;28;20451;-77
2022/11/19 08:38:14;;;;;;;18.33;12.13;;;3.30;99.90;;;;;;5041263;28;20498;-78
2022/11/19 08:40:41;;;;;;;16.07;10.80;;;3.20;99.90;;;;;;5055471;28;20522;-78
2022/11/19 08:43:06;;;;;;;14.33;10.57;;;3.30;99.90;;;;;;5042633;28;20467;-78
2022/11/19 08:45:35;;;;;;;14.77;10.20;;;2.90;99.90;;;;;;5055660;28;20963;-79
2022/11/19 08:48:04;;;;;;;13.83;10.30;;;3.00;99.90;;;;;;5060677;28;20463;-79
2022/11/19 08:50:31;;;;;;;16.00;11.60;;;3.10;99.90;;;;;;5048405;28;20454;-78
2022/11/19 08:53:01;;;;;;;13.63;9.73;;;3.00;99.90;;;;;;5060802;28;20509;-78
2022/11/19 08:55:29;;;;;;;12.83;9.37;;;2.90;99.90;;;;;;5046315;28;20775;-78
2022/11/19 08:58:01;;;;;;;13.93;8.80;;;3.00;99.90;;;;;;5040303;28;20619;-78
2022/11/19 09:00:28;;;;;;;16.87;10.80;;;3.00;99.90;;;;;;5052663;28;20480;-78
2022/11/19 09:02:55;;;;;;;13.97;10.10;;;2.90;99.90;;;;;;5051708;28;20446;-77
2022/11/19 09:05:22;;;;;;;12.20;9.33;;;2.80;99.90;;;;;;5060540;28;20516;-79
2022/11/19 09:07:49;;;;;;;13.80;9.63;;;2.90;99.90;;;;;;5054196;28;20449;-79
2022/11/19 09:10:18;;;;;;;14.97;9.90;;;3.00;99.90;;;;;;5041285;28;20459;-78
2022/11/19 09:12:45;;;;;;;15.80;9.80;;;3.10;99.90;;;;;;5060389;28;20547;-79
2022/11/19 09:15:12;;;;;;;13.37;9.00;;;3.10;99.90;;;;;;5051149;28;20420;-78
2022/11/19 09:17:39;;;;;;;12.60;8.57;;;3.00;99.90;;;;;;5040942;28;20563;-78
2022/11/19 09:20:07;;;;;;;14.33;9.50;;;2.90;99.90;;;;;;5040556;28;20447;-78
2022/11/19 09:22:34;;;;;;;12.57;9.03;;;2.80;99.90;;;;;;5053095;28;20474;-78
2022/11/19 09:25:01;;;;;;;14.83;9.00;;;2.90;99.90;;;;;;5060344;28;20515;-78
2022/11/19 09:27:30;;;;;;;14.57;9.53;;;3.00;99.90;;;;;;5055287;28;20496;-78
2022/11/19 09:29:56;;;;;;;13.87;8.80;;;3.00;99.90;;;;;;5057974;28;20473;-77
2022/11/19 09:32:27;;;;;;;12.20;9.00;;;3.10;99.90;;;;;;5057403;28;20476;-78
2022/11/19 09:34:54;;;;;;;11.13;9.03;;;3.10;99.90;;;;;;5065002;28;20487;-77
2022/11/19 09:37:20;;;;;;;13.70;9.13;;;3.00;99.90;;;;;;5062980;28;20476;-78
2022/11/19 09:39:47;;;;;;;11.10;7.97;;;3.10;99.90;;;;;;5055756;28;20528;-78
2022/11/19 09:42:16;;;;;;;12.00;8.43;;;3.20;99.90;;;;;;5058484;28;20503;-78
2022/11/19 09:45:17;;;;;;;11.67;8.80;;;3.20;99.90;;;;;;5062770;28;20476;-78
2022/11/19 09:48:06;;;;;;;13.03;9.00;;;3.20;99.90;;;;;;5043068;28;20476;-79
2022/11/19 09:50:44;;;;;;;14.50;9.30;;;3.30;99.90;;;;;;5056359;28;20455;-78
2022/11/19 09:53:17;;;;;;;11.90;8.40;;;3.40;99.90;;;;;;5060480;28;20487;-78
2022/11/19 09:55:46;;;;;;;11.70;8.40;;;3.50;99.90;;;;;;5041205;28;20426;-78
2022/11/19 09:58:16;;;;;;;12.30;8.77;;;3.40;99.90;;;;;;5039435;28;20484;-79
2022/11/19 10:00:45;;;;;;;14.57;8.80;;;3.50;99.90;;;;;;5041990;28;20873;-78
2022/11/19 10:03:15;;;;;;;11.73;8.53;;;3.60;99.90;;;;;;5040613;28;20522;-78
2022/11/19 10:05:54;;;;;;;11.87;8.10;;;3.70;99.90;;;;;;5043099;28;20480;-78
2022/11/19 10:08:30;;;;;;;13.83;8.80;;;3.70;99.90;;;;;;5041350;28;20502;-79
2022/11/19 10:11:14;;;;;;;12.50;8.53;;;3.60;99.90;;;;;;5041807;28;20476;-78
2022/11/19 10:13:53;;;;;;;11.57;8.07;;;3.60;99.90;;;;;;5040635;28;20465;-78
2022/11/19 10:16:37;;;;;;;13.40;9.13;;;3.70;99.90;;;;;;5047795;28;20485;-79
2022/11/19 10:19:16;;;;;;;15.03;8.73;;;3.70;99.90;;;;;;5042403;28;20457;-78
2022/11/19 10:21:49;;;;;;;11.30;7.73;;;3.60;99.90;;;;;;5037854;28;20427;-78
2022/11/19 10:24:25;;;;;;;11.30;7.67;;;3.80;99.90;;;;;;5041238;28;20442;-78
2022/11/19 10:26:58;;;;;;;11.80;8.10;;;3.90;99.90;;;;;;5035332;28;20425;-78
2022/11/19 10:29:27;;;;;;;11.30;7.50;;;3.80;99.90;;;;;;5036346;28;20991;-77
2022/11/19 10:32:17;;;;;;;11.00;8.53;;;3.80;99.90;;;;;;5031134;28;20517;-78
2022/11/19 10:34:46;;;;;;;13.03;8.10;;;3.80;99.90;;;;;;5032391;28;20536;-78
2022/11/19 10:37:17;;;;;;;8.60;6.70;;;4.00;99.90;;;;;;5032663;28;21263;-78
2022/11/19 10:39:51;;;;;;;11.90;8.77;;;4.20;99.90;;;;;;5037269;28;20515;-77
2022/11/19 10:42:21;;;;;;;9.83;7.70;;;4.30;99.90;;;;;;5033180;28;20483;-78
2022/11/19 10:44:53;;;;;;;11.40;8.20;;;4.50;99.90;;;;;;5038259;28;20441;-77
2022/11/19 10:47:26;;;;;;;11.87;8.20;;;4.50;99.90;;;;;;5036656;28;20460;-77
2022/11/19 10:49:57;;;;;;;11.97;7.70;;;4.80;99.90;;;;;;5036698;28;20532;-77
2022/11/19 10:52:31;;;;;;;11.47;8.20;;;5.00;99.90;;;;;;5030240;28;20566;-78
2022/11/19 10:55:04;;;;;;;13.00;8.23;;;4.90;99.90;;;;;;5040167;28;20441;-78
2022/11/19 10:57:32;;;;;;;9.27;7.63;;;5.10;99.90;;;;;;5040883;28;20528;-78
2022/11/19 11:00:00;;;;;;;11.67;7.90;;;5.30;99.90;;;;;;5040087;28;20463;-78
2022/11/19 11:02:35;;;;;;;12.37;7.50;;;5.20;99.90;;;;;;5037234;28;20481;-77
2022/11/19 11:05:06;;;;;;;11.40;8.03;;;5.20;99.90;;;;;;5033297;28;20898;-78
2022/11/19 11:07:56;;;;;;;9.63;7.67;;;5.50;99.90;;;;;;5042020;28;20451;-78
2022/11/19 11:10:36;;;;;;;9.30;6.93;;;6.20;99.90;;;;;;5042295;28;20928;-77
2022/11/19 11:16:12;;;;;;;9.60;7.20;;;8.20;99.90;;;;;;5035731;28;20437;-77
2022/11/19 11:18:41;;;;;;;9.30;7.87;;;8.30;99.90;;;;;;5034381;28;20558;-77
2022/11/19 11:21:29;;;;;;;10.10;7.40;;;7.70;99.90;;;;;;5028487;28;20454;-77
2022/11/19 11:23:56;;;;;;;12.00;8.17;;;7.40;99.90;;;;;;5039978;28;20552;-78
2022/11/19 11:26:25;;;;;;;9.67;6.97;;;6.90;99.90;;;;;;5048955;28;20510;-78
2022/11/19 11:29:01;;;;;;;10.27;6.60;;;6.70;99.90;;;;;;5047068;28;20454;-78
2022/11/19 11:31:30;;;;;;;8.87;6.47;;;6.60;99.90;;;;;;5041776;28;20452;-77
2022/11/19 11:34:01;;;;;;;9.73;7.07;;;6.40;99.90;;;;;;5036010;28;20464;-78
2022/11/19 11:36:30;;;;;;;9.63;7.00;;;6.40;99.90;;;;;;5046913;28;20519;-78
2022/11/19 11:38:59;;;;;;;9.83;7.47;;;6.10;99.90;;;;;;5047562;28;20558;-77
2022/11/19 11:41:35;;;;;;;9.50;7.30;;;5.90;99.90;;;;;;5044950;28;20449;-77
2022/11/19 11:44:04;;;;;;;9.90;6.90;;;6.00;99.90;;;;;;5036022;28;20991;-78
2022/11/19 11:46:38;;;;;;;9.13;7.30;;;5.70;99.90;;;;;;5038348;28;20461;-78
2022/11/19 11:49:09;;;;;;;11.30;7.00;;;5.70;99.90;;;;;;5040249;28;20559;-78
2022/11/19 11:51:39;;;;;;;11.17;7.27;;;5.90;99.90;;;;;;5054422;28;20989;-78
2022/11/19 11:54:15;;;;;;;10.30;8.10;;;5.90;99.90;;;;;;5059264;28;20470;-78
2022/11/19 11:56:42;;;;;;;10.43;7.50;;;5.90;99.90;;;;;;5044253;28;20457;-78
2022/11/19 11:59:22;;;;;;;11.93;8.10;;;6.10;99.90;;;;;;5051420;28;20485;-78
2022/11/19 12:01:57;;;;;;;9.47;6.30;;;6.10;99.90;;;;;;5056953;28;21006;-78
2022/11/19 12:04:25;;;;;;;8.57;6.20;;;6.40;99.90;;;;;;5097883;22;20574;-82
2022/11/19 12:07:07;;;;;;;8.70;7.00;;;6.30;99.90;;;;;;5089373;28;20524;-82
2022/11/19 12:09:40;;;;;;;9.87;7.43;;;6.30;99.90;;;;;;5087559;28;21002;-84
2022/11/19 12:12:13;;;;;;;12.23;6.90;;;6.20;99.90;;;;;;5087804;28;20450;-84
2022/11/19 12:14:45;;;;;;;9.20;6.53;;;5.90;99.90;;;;;;5069011;28;20491;-85
2022/11/19 12:17:36;;;;;;;10.80;7.30;;;5.80;99.90;;;;;;5068379;28;20522;-85
2022/11/19 12:20:24;;;;;;;10.20;7.60;;;5.70;99.90;;;;;;5068248;28;20848;-85
2022/11/19 12:23:21;;;;;;;13.43;8.07;;;5.50;99.90;;;;;;5074179;28;20530;-85
2022/11/19 12:25:58;;;;;;;11.10;8.00;;;5.50;99.90;;;;;;5048053;28;20443;-84
2022/11/19 12:28:51;;;;;;;15.00;8.53;;;5.40;99.90;;;;;;5066982;28;20455;-84
2022/11/19 12:31:26;;;;;;;10.70;7.33;;;5.40;99.90;;;;;;5065176;28;20514;-85
2022/11/19 12:34:06;;;;;;;9.80;7.63;;;5.40;99.90;;;;;;5066800;28;20908;-85
2022/11/19 12:36:47;;;;;;;11.87;7.63;;;5.20;99.90;;;;;;5067593;28;20529;-83
2022/11/19 12:39:26;;;;;;;11.10;7.63;;;5.30;99.90;;;;;;5067486;28;20481;-85
2022/11/19 12:42:11;;;;;;;12.07;7.00;;;5.20;99.90;;;;;;5067742;28;20450;-84
2022/11/19 12:44:50;;;;;;;8.20;6.67;;;5.30;99.90;;;;;;5067727;28;20513;-86
2022/11/19 12:47:31;;;;;;;12.07;7.73;;;5.20;99.90;;;;;;5067049;28;20448;-85
2022/11/19 12:50:15;;;;;;;10.57;7.37;;;5.20;99.90;;;;;;5067552;28;20489;-84
2022/11/19 12:53:09;;;;;;;9.30;7.13;;;5.00;99.90;;;;;;5068085;28;20555;-81
2022/11/19 12:55:44;;;;;;;9.77;7.10;;;5.10;99.90;;;;;;5072702;28;21014;-82
2022/11/19 12:58:22;;;;;;;8.87;6.33;;;5.20;99.90;;;;;;5071605;28;20477;-83
2022/11/19 13:00:54;;;;;;;9.83;7.17;;;5.30;99.90;;;;;;5063148;28;20451;-83
2022/11/19 13:03:32;;;;;;;7.63;5.97;;;5.20;99.90;;;;;;5086285;28;20487;-83
2022/11/19 13:06:02;;;;;;;9.47;7.07;;;5.20;99.90;;;;;;5077309;28;20469;-82
2022/11/19 13:08:35;;;;;;;11.57;8.23;;;5.20;99.90;;;;;;5075496;28;20472;-83
2022/11/19 13:11:08;;;;;;;12.50;8.43;;;5.00;99.90;;;;;;5074190;28;20514;-82
2022/11/19 13:13:38;;;;;;;12.27;7.70;;;4.80;99.90;;;;;;5063924;28;20551;-83
2022/11/19 13:16:09;;;;;;;10.70;7.17;;;4.80;99.90;;;;;;5067307;28;20448;-83
2022/11/19 13:18:39;;;;;;;10.97;7.30;;;4.80;99.90;;;;;;5066212;28;20570;-83
2022/11/19 13:21:12;;;;;;;8.50;6.77;;;4.80;99.90;;;;;;5068414;28;20516;-83